createdAt,value
2023-01-29T00:01:44.495Z,3.53
2023-01-29T00:04:10.923Z,3.52
2023-01-29T00:06:37.299Z,3.49
2023-01-29T00:09:03.708Z,3.51
2023-01-29T00:11:30.056Z,3.49
2023-01-29T00:13:56.440Z,3.46
2023-01-29T00:16:22.773Z,3.45
2023-01-29T00:18:49.134Z,3.43
2023-01-29T00:21:38.084Z,3.42
2023-01-29T00:24:03.184Z,3.42
2023-01-29T00:26:29.793Z,3.40
2023-01-29T00:28:56.174Z,3.36
2023-01-29T00:31:22.740Z,3.34
2023-01-29T00:33:58.592Z,3.34
2023-01-29T00:36:24.984Z,3.20
2023-01-29T00:38:51.381Z,3.24
2023-01-29T00:41:17.743Z,3.28
2023-01-29T00:43:44.343Z,3.22
2023-01-29T00:46:10.823Z,3.21
2023-01-29T00:48:41.380Z,3.20
2023-01-29T00:51:07.732Z,3.20
2023-01-29T00:53:40.044Z,3.20
2023-01-29T00:56:07.531Z,3.18
2023-01-29T00:58:40.992Z,3.21
2023-01-29T01:01:07.514Z,3.21
2023-01-29T01:03:33.927Z,3.18
2023-01-29T01:06:00.337Z,3.15
2023-01-29T01:08:26.716Z,3.16
2023-01-29T01:10:53.292Z,3.17
2023-01-29T01:13:19.638Z,3.12
2023-01-29T01:15:45.955Z,3.13
2023-01-29T01:18:12.358Z,3.13
2023-01-29T01:20:38.725Z,3.13
2023-01-29T01:23:05.129Z,3.09
2023-01-29T01:25:31.752Z,3.07
2023-01-29T01:30:24.665Z,3.14
2023-01-29T01:32:51.891Z,3.13
2023-01-29T01:35:18.362Z,3.13
2023-01-29T01:37:44.724Z,3.13
2023-01-29T01:40:11.329Z,3.12
2023-01-29T01:42:37.698Z,3.11
2023-01-29T01:45:04.087Z,3.08
2023-01-29T01:47:30.487Z,3.03
2023-01-29T01:49:56.945Z,3.03
2023-01-29T01:52:23.331Z,3.04
2023-01-29T01:54:49.704Z,3.03
2023-01-29T01:57:16.086Z,3.00
2023-01-29T01:59:42.427Z,2.93
2023-01-29T02:02:08.797Z,2.92
2023-01-29T02:04:38.117Z,2.89
2023-01-29T02:07:04.525Z,2.87
2023-01-29T02:09:30.877Z,2.88
2023-01-29T02:11:57.256Z,2.86
2023-01-29T02:14:23.613Z,2.87
2023-01-29T02:16:52.780Z,2.84
2023-01-29T02:19:19.159Z,2.83
2023-01-29T02:21:45.484Z,2.83
2023-01-29T02:24:12.102Z,2.81
2023-01-29T02:26:38.571Z,2.79
2023-01-29T02:29:07.547Z,2.77
2023-01-29T02:31:33.943Z,2.78
2023-01-29T02:34:00.323Z,2.79
2023-01-29T02:36:26.909Z,2.81
2023-01-29T02:38:53.288Z,2.80
2023-01-29T02:41:19.615Z,2.83
2023-01-29T02:43:45.965Z,2.85
2023-01-29T02:46:12.424Z,2.86
2023-01-29T02:48:39.964Z,2.83
2023-01-29T02:51:06.327Z,2.82
2023-01-29T02:53:32.702Z,2.80
2023-01-29T02:55:59.077Z,2.79
2023-01-29T02:58:25.423Z,2.80
2023-01-29T03:00:51.811Z,2.81
2023-01-29T03:03:18.185Z,2.81
2023-01-29T03:05:44.586Z,2.86
2023-01-29T03:08:10.977Z,2.82
2023-01-29T03:10:37.352Z,2.78
2023-01-29T03:13:07.933Z,2.75
2023-01-29T03:15:50.696Z,2.71
2023-01-29T03:18:17.112Z,2.68
2023-01-29T03:20:43.581Z,2.67
2023-01-29T03:23:10.140Z,2.66
2023-01-29T03:25:44.488Z,2.63
2023-01-29T03:28:10.839Z,2.63
2023-01-29T03:30:37.287Z,2.59
2023-01-29T03:33:03.687Z,2.60
2023-01-29T03:35:30.170Z,2.61
2023-01-29T03:37:56.536Z,2.56
2023-01-29T03:40:23.148Z,2.53
2023-01-29T03:42:51.256Z,2.53
2023-01-29T03:45:17.629Z,2.55
2023-01-29T03:47:44.023Z,2.56
2023-01-29T03:50:10.411Z,2.59
2023-01-29T03:52:36.945Z,2.59
2023-01-29T03:55:03.352Z,2.60
2023-01-29T03:57:29.894Z,2.61
2023-01-29T03:59:56.259Z,2.61
2023-01-29T04:02:22.692Z,2.61
2023-01-29T04:04:49.074Z,2.63
2023-01-29T04:07:15.422Z,2.63
2023-01-29T04:09:41.749Z,2.61
2023-01-29T04:12:08.117Z,2.62
2023-01-29T04:14:34.715Z,2.63
2023-01-29T04:17:01.059Z,2.63
2023-01-29T04:19:28.469Z,2.63
2023-01-29T04:21:54.805Z,2.65
2023-01-29T04:24:21.232Z,2.60
2023-01-29T04:26:53.579Z,2.57
2023-01-29T04:29:19.951Z,2.55
2023-01-29T04:31:46.443Z,2.52
2023-01-29T04:34:12.847Z,2.51
2023-01-29T04:36:41.769Z,2.50
2023-01-29T04:39:09.310Z,2.55
2023-01-29T04:41:36.371Z,2.55
2023-01-29T04:44:02.792Z,2.51
2023-01-29T04:46:29.205Z,2.51
2023-01-29T04:51:35.919Z,2.46
2023-01-29T04:54:02.318Z,2.45
2023-01-29T04:56:28.684Z,2.47
2023-01-29T04:58:55.131Z,2.48
2023-01-29T05:01:24.508Z,2.45
2023-01-29T05:03:50.881Z,2.42
2023-01-29T05:06:17.271Z,2.41
2023-01-29T05:08:43.611Z,2.42
2023-01-29T05:11:09.997Z,2.38
2023-01-29T05:13:38.513Z,2.35
2023-01-29T05:16:05.942Z,2.40
2023-01-29T05:18:32.343Z,2.40
2023-01-29T05:20:58.706Z,2.40
2023-01-29T05:23:25.055Z,2.41
2023-01-29T05:25:51.433Z,2.40
2023-01-29T05:28:17.848Z,2.39
2023-01-29T05:30:44.282Z,2.39
2023-01-29T05:33:10.632Z,2.37
2023-01-29T05:42:55.357Z,2.25
2023-01-29T05:44:07.294Z,2.26
2023-01-29T05:46:33.781Z,2.26
2023-01-29T05:49:00.345Z,2.23
2023-01-29T05:51:26.959Z,2.21
2023-01-29T05:53:53.447Z,2.21
2023-01-29T05:56:19.850Z,2.21
2023-01-29T05:58:46.246Z,2.20
2023-01-29T06:01:13.879Z,2.17
2023-01-29T06:06:20.611Z,2.14
2023-01-29T06:08:47.123Z,2.13
2023-01-29T06:11:13.627Z,2.14
2023-01-29T06:13:40.111Z,2.13
2023-01-29T06:16:06.653Z,2.10
2023-01-29T06:18:33.132Z,2.08
2023-01-29T06:20:59.669Z,2.04
2023-01-29T06:23:26.176Z,2.06
2023-01-29T06:25:52.765Z,2.07
2023-01-29T06:28:19.361Z,2.06
2023-01-29T06:30:45.863Z,2.07
2023-01-29T06:33:14.385Z,2.04
2023-01-29T06:35:40.857Z,2.02
2023-01-29T06:38:07.272Z,2.00
2023-01-29T06:40:33.767Z,2.00
2023-01-29T06:43:00.257Z,2.00
2023-01-29T06:45:26.735Z,2.01
2023-01-29T06:50:33.536Z,1.95
2023-01-29T06:52:59.987Z,1.97
2023-01-29T06:55:26.408Z,1.88
2023-01-29T06:57:52.874Z,1.90
2023-01-29T07:00:19.457Z,1.94
2023-01-29T07:02:45.972Z,1.96
2023-01-29T07:05:12.372Z,1.99
2023-01-29T07:07:38.757Z,2.01
2023-01-29T07:10:05.121Z,2.04
2023-01-29T07:12:31.791Z,2.03
2023-01-29T07:14:58.240Z,2.05
2023-01-29T07:17:24.592Z,2.04
2023-01-29T07:19:51.065Z,2.04
2023-01-29T07:22:17.459Z,2.04
2023-01-29T07:24:46.786Z,2.06
2023-01-29T07:27:13.228Z,2.05
2023-01-29T07:29:39.659Z,2.06
2023-01-29T07:32:07.325Z,2.04
2023-01-29T07:34:33.778Z,1.85
2023-01-29T07:37:00.429Z,1.94
2023-01-29T07:39:26.872Z,1.97
2023-01-29T07:41:53.342Z,1.94
2023-01-29T07:44:19.807Z,2.01
2023-01-29T07:46:46.295Z,2.05
2023-01-29T07:49:12.800Z,2.08
2023-01-29T07:51:39.290Z,2.09
2023-01-29T07:54:05.709Z,2.09
2023-01-29T07:56:32.154Z,2.07
2023-01-29T07:58:58.621Z,1.99
2023-01-29T08:01:25.230Z,2.01
2023-01-29T08:03:51.716Z,1.95
2023-01-29T08:06:18.128Z,1.88
2023-01-29T08:08:44.533Z,1.83
2023-01-29T08:11:11.045Z,1.82
2023-01-29T08:13:37.664Z,1.80
2023-01-29T08:16:04.123Z,1.81
2023-01-29T08:18:30.574Z,1.82
2023-01-29T08:20:57.296Z,1.85
2023-01-29T08:23:23.819Z,1.86
2023-01-29T08:25:50.284Z,1.86
2023-01-29T08:28:16.714Z,1.88
2023-01-29T08:30:43.118Z,1.91
2023-01-29T08:33:10.546Z,1.85
2023-01-29T08:35:36.981Z,1.66
2023-01-29T08:38:03.499Z,1.64
2023-01-29T08:40:29.984Z,1.47
2023-01-29T08:42:56.448Z,1.60
2023-01-29T08:45:23.013Z,1.68
2023-01-29T08:47:49.563Z,1.75
2023-01-29T08:50:19.385Z,1.76
2023-01-29T08:52:46.079Z,1.74
2023-01-29T08:55:12.530Z,1.83
2023-01-29T08:57:40.161Z,1.81
2023-01-29T09:00:06.601Z,1.86
2023-01-29T09:02:33.069Z,1.87
2023-01-29T09:04:59.518Z,1.95
2023-01-29T09:07:25.895Z,2.05
2023-01-29T09:09:52.305Z,2.07
2023-01-29T09:12:18.713Z,2.13
2023-01-29T09:14:45.131Z,2.16
2023-01-29T09:17:11.605Z,2.22
2023-01-29T09:19:38.199Z,2.23
2023-01-29T09:22:04.655Z,2.20
2023-01-29T09:24:31.099Z,2.23
2023-01-29T09:26:57.653Z,2.27
2023-01-29T09:29:24.039Z,2.30
2023-01-29T09:31:50.776Z,2.33
2023-01-29T09:34:18.606Z,2.36
2023-01-29T09:36:45.121Z,2.38
2023-01-29T09:39:11.609Z,2.42
2023-01-29T09:41:38.012Z,2.44
2023-01-29T09:44:04.403Z,2.50
2023-01-29T09:46:42.851Z,2.54
2023-01-29T09:49:09.280Z,2.53
2023-01-29T09:51:35.672Z,2.57
2023-01-29T09:54:02.136Z,2.59
2023-01-29T09:56:28.606Z,2.60
2023-01-29T09:59:09.163Z,2.64
2023-01-29T10:04:33.776Z,2.69
2023-01-29T10:07:00.259Z,2.76
2023-01-29T10:09:28.471Z,2.78
2023-01-29T10:11:57.783Z,2.81
2023-01-29T10:14:27.136Z,2.85
2023-01-29T10:16:53.603Z,2.86
2023-01-29T10:19:20.467Z,2.88
2023-01-29T10:21:48.275Z,2.90
2023-01-29T10:24:14.778Z,2.88
2023-01-29T10:26:41.242Z,2.96
2023-01-29T10:29:07.748Z,2.98
2023-01-29T10:31:36.075Z,2.99
2023-01-29T10:34:07.198Z,3.00
2023-01-29T10:36:33.723Z,3.03
2023-01-29T10:39:04.460Z,3.03
2023-01-29T10:41:30.927Z,3.10
2023-01-29T10:43:57.387Z,3.16
2023-01-29T10:46:23.799Z,3.20
2023-01-29T10:48:50.257Z,3.22
2023-01-29T10:51:16.746Z,3.24
2023-01-29T10:53:43.183Z,3.25
2023-01-29T10:56:22.380Z,3.29
2023-01-29T10:58:52.465Z,3.31
2023-01-29T11:01:21.419Z,3.33
2023-01-29T11:06:33.594Z,3.43
2023-01-29T11:09:00.113Z,3.45
2023-01-29T11:11:26.660Z,3.46
2023-01-29T11:13:53.258Z,3.49
2023-01-29T11:16:19.815Z,3.60
2023-01-29T11:18:48.520Z,3.62
2023-01-29T11:21:15.069Z,3.62
2023-01-29T11:23:41.569Z,3.63
2023-01-29T11:26:08.053Z,3.59
2023-01-29T11:28:34.503Z,3.64
2023-01-29T11:31:17.238Z,3.67
2023-01-29T11:33:43.852Z,3.62
2023-01-29T11:36:10.324Z,3.73
2023-01-29T11:38:37.078Z,3.76
2023-01-29T11:41:03.907Z,3.83
2023-01-29T11:43:33.541Z,3.84
2023-01-29T11:46:00.360Z,3.83
2023-01-29T11:48:26.774Z,3.87
2023-01-29T11:50:53.314Z,3.92
2023-01-29T11:53:19.818Z,3.91
2023-01-29T11:55:50.783Z,3.99
2023-01-29T11:58:17.821Z,4.02
2023-01-29T12:00:44.706Z,4.13
2023-01-29T12:03:11.142Z,4.10
2023-01-29T12:05:37.688Z,4.16
2023-01-29T12:08:04.030Z,4.19
2023-01-29T12:10:33.163Z,4.19
2023-01-29T12:12:59.684Z,4.20
2023-01-29T12:15:26.180Z,4.22
2023-01-29T12:17:52.651Z,4.22
2023-01-29T12:20:24.044Z,4.21
2023-01-29T12:22:50.511Z,4.21
2023-01-29T12:25:16.992Z,4.09
2023-01-29T12:27:43.382Z,4.11
2023-01-29T12:30:12.289Z,4.18
2023-01-29T12:32:38.693Z,4.14
2023-01-29T12:35:06.130Z,4.17
2023-01-29T12:37:33.612Z,4.18
2023-01-29T12:40:02.302Z,4.23
2023-01-29T12:42:34.314Z,4.26
2023-01-29T12:45:07.121Z,4.26
2023-01-29T12:47:40.970Z,4.20
2023-01-29T12:50:07.487Z,4.16
2023-01-29T12:52:38.114Z,4.18
2023-01-29T12:55:04.656Z,4.21
2023-01-29T12:57:31.181Z,4.26
2023-01-29T12:59:59.766Z,4.22
2023-01-29T13:02:26.416Z,4.27
2023-01-29T13:04:53.249Z,4.23
2023-01-29T13:07:19.794Z,4.30
2023-01-29T13:09:46.293Z,4.29
2023-01-29T13:12:14.863Z,4.37
2023-01-29T13:14:41.264Z,4.43
2023-01-29T13:17:07.977Z,4.41
2023-01-29T13:19:38.564Z,4.41
2023-01-29T13:25:02.325Z,4.55
2023-01-29T13:27:30.268Z,4.62
2023-01-29T13:32:39.626Z,4.67
2023-01-29T13:35:06.063Z,4.60
2023-01-29T13:37:39.644Z,4.70
2023-01-29T13:40:06.466Z,4.72
2023-01-29T13:42:32.890Z,4.64
2023-01-29T13:44:59.399Z,4.70
2023-01-29T13:47:25.801Z,4.72
2023-01-29T13:49:52.291Z,4.69
2023-01-29T13:52:19.084Z,4.68
2023-01-29T13:54:45.708Z,4.48
2023-01-29T13:57:12.143Z,4.49
2023-01-29T13:59:38.577Z,4.54
2023-01-29T14:04:45.423Z,4.74
2023-01-29T14:07:12.010Z,4.77
2023-01-29T14:09:38.462Z,4.68
2023-01-29T14:12:04.882Z,4.70
2023-01-29T14:14:31.304Z,4.67
2023-01-29T14:17:01.298Z,4.71
2023-01-29T14:19:29.509Z,4.70
2023-01-29T14:21:57.794Z,4.68
2023-01-29T14:24:24.236Z,4.60
2023-01-29T14:26:50.646Z,4.49
2023-01-29T14:29:25.633Z,4.37
2023-01-29T14:32:05.201Z,4.34
2023-01-29T14:37:18.389Z,4.26
2023-01-29T14:39:44.839Z,4.24
2023-01-29T14:42:11.313Z,4.23
2023-01-29T14:44:37.787Z,4.22
2023-01-29T14:47:04.419Z,4.31
2023-01-29T14:49:31.521Z,4.38
2023-01-29T14:51:58.006Z,4.34
2023-01-29T14:54:24.538Z,4.44
2023-01-29T14:56:51.067Z,4.48
2023-01-29T14:59:17.602Z,4.43
2023-01-29T15:01:44.266Z,4.32
2023-01-29T15:04:12.211Z,4.35
2023-01-29T15:06:39.517Z,4.46
2023-01-29T15:09:06.002Z,4.47
2023-01-29T15:11:32.517Z,4.17
2023-01-29T15:13:58.907Z,3.99
2023-01-29T15:16:25.360Z,4.05
2023-01-29T15:18:51.844Z,4.01
2023-01-29T15:21:18.456Z,4.12
2023-01-29T15:23:44.895Z,4.27
2023-01-29T15:26:12.427Z,4.20
2023-01-29T15:28:38.914Z,4.26
2023-01-29T15:31:07.169Z,4.16
2023-01-29T15:33:33.937Z,4.10
2023-01-29T15:36:07.636Z,4.22
2023-01-29T15:38:34.517Z,4.20
2023-01-29T15:41:00.975Z,4.25
2023-01-29T15:43:27.480Z,4.27
2023-01-29T15:45:54.041Z,4.29
2023-01-29T15:48:20.545Z,4.34
2023-01-29T15:50:47.049Z,4.38
2023-01-29T15:53:13.523Z,4.37
2023-01-29T15:55:41.024Z,4.43
2023-01-29T15:58:07.518Z,4.49
2023-01-29T16:00:34.053Z,4.60
2023-01-29T16:03:00.893Z,4.61
2023-01-29T16:05:29.036Z,4.60
2023-01-29T16:07:55.531Z,4.69
2023-01-29T16:10:22.069Z,4.67
2023-01-29T16:12:48.466Z,4.72
2023-01-29T16:15:15.431Z,4.72
2023-01-29T16:17:42.252Z,4.78
2023-01-29T16:20:08.856Z,4.78
2023-01-29T16:22:35.371Z,4.76
2023-01-29T16:25:01.991Z,4.76
2023-01-29T16:27:28.509Z,4.80
2023-01-29T16:29:54.984Z,4.75
2023-01-29T16:32:21.353Z,4.70
2023-01-29T16:34:47.804Z,4.77
2023-01-29T16:37:14.251Z,4.75
2023-01-29T16:39:40.724Z,4.64
2023-01-29T16:42:07.158Z,4.75
2023-01-29T16:44:33.673Z,4.80
2023-01-29T16:47:00.115Z,4.83
2023-01-29T16:49:26.540Z,4.87
2023-01-29T16:51:52.963Z,4.91
2023-01-29T16:54:37.717Z,4.88
2023-01-29T16:57:09.068Z,4.76
2023-01-29T16:59:35.642Z,4.73
2023-01-29T17:02:02.143Z,4.61
2023-01-29T17:04:28.749Z,4.74
2023-01-29T17:06:55.424Z,4.81
2023-01-29T17:09:22.029Z,4.87
2023-01-29T17:11:48.449Z,4.92
2023-01-29T17:14:14.903Z,4.95
2023-01-29T17:16:41.433Z,4.98
2023-01-29T17:19:07.885Z,5.02
2023-01-29T17:21:34.342Z,5.00
2023-01-29T17:24:08.406Z,4.98
2023-01-29T17:31:55.492Z,5.00
2023-01-29T17:34:22.546Z,5.02
2023-01-29T17:36:49.005Z,4.97
2023-01-29T17:39:19.830Z,4.99
2023-01-29T17:41:47.624Z,5.00
2023-01-29T17:44:14.636Z,5.00
2023-01-29T17:46:41.157Z,5.03
2023-01-29T17:49:07.759Z,5.03
2023-01-29T17:51:34.270Z,5.00
2023-01-29T17:54:00.763Z,5.00
2023-01-29T17:56:27.172Z,5.01
2023-01-29T17:58:53.673Z,5.02
2023-01-29T18:01:20.212Z,5.02
2023-01-29T18:03:46.743Z,5.00
2023-01-29T18:06:13.266Z,4.99
2023-01-29T18:08:40.822Z,4.98
2023-01-29T18:11:07.369Z,4.97
2023-01-29T18:16:14.232Z,4.93
2023-01-29T18:18:40.735Z,4.91
2023-01-29T18:21:07.241Z,4.91
2023-01-29T18:23:33.801Z,4.85
2023-01-29T18:26:00.239Z,4.86
2023-01-29T18:28:34.149Z,4.81
2023-01-29T18:31:01.685Z,4.80
2023-01-29T18:33:28.226Z,4.81
2023-01-29T18:35:54.734Z,4.82
2023-01-29T18:38:21.181Z,4.84
2023-01-29T18:40:47.581Z,4.84
2023-01-29T18:43:14.330Z,4.85
2023-01-29T18:45:42.051Z,4.88
2023-01-29T18:48:08.507Z,4.87
2023-01-29T18:50:34.950Z,4.89
2023-01-29T18:53:01.452Z,4.90
2023-01-29T18:55:27.919Z,4.92
2023-01-29T18:58:26.515Z,4.92
2023-01-29T19:00:40.824Z,4.88
2023-01-29T19:03:07.292Z,4.86
2023-01-29T19:05:33.757Z,4.81
2023-01-29T19:08:00.140Z,4.80
2023-01-29T19:10:26.506Z,4.81
2023-01-29T19:13:01.933Z,4.80
2023-01-29T19:15:28.403Z,4.77
2023-01-29T19:17:54.817Z,4.76
2023-01-29T19:20:21.311Z,4.72
2023-01-29T19:22:49.158Z,4.67
2023-01-29T19:25:16.409Z,4.66
2023-01-29T19:27:50.353Z,4.65
2023-01-29T19:30:16.866Z,4.63
2023-01-29T19:32:43.766Z,4.61
2023-01-29T19:35:13.337Z,4.57
2023-01-29T19:37:39.905Z,4.54
2023-01-29T19:40:06.405Z,4.49
2023-01-29T19:42:33.125Z,4.46
2023-01-29T19:44:59.722Z,4.41
2023-01-29T19:47:26.234Z,4.34
2023-01-29T19:49:52.736Z,4.22
2023-01-29T19:52:19.225Z,4.20
2023-01-29T19:54:45.619Z,4.16
2023-01-29T19:57:12.269Z,4.14
2023-01-29T19:59:38.745Z,4.10
2023-01-29T20:02:05.287Z,4.09
2023-01-29T20:04:31.799Z,4.06
2023-01-29T20:06:58.641Z,4.04
2023-01-29T20:09:28.145Z,4.03
2023-01-29T20:11:54.719Z,4.04
2023-01-29T20:14:24.314Z,4.04
2023-01-29T20:16:51.610Z,4.04
2023-01-29T20:19:18.179Z,4.03
2023-01-29T20:21:45.856Z,4.03
2023-01-29T20:24:12.657Z,4.05
2023-01-29T20:26:43.472Z,4.07
2023-01-29T20:29:10.027Z,4.05
2023-01-29T20:31:41.359Z,4.05
2023-01-29T20:34:07.881Z,4.04
2023-01-29T20:36:34.377Z,4.04
2023-01-29T20:39:00.940Z,4.05
2023-01-29T20:41:27.601Z,4.06
2023-01-29T20:43:54.056Z,4.07
2023-01-29T20:46:20.478Z,4.07
2023-01-29T20:48:46.903Z,4.05
2023-01-29T20:51:13.321Z,4.05
2023-01-29T20:53:39.839Z,4.03
2023-01-29T20:56:06.271Z,4.01
2023-01-29T20:58:32.920Z,3.89
2023-01-29T21:00:59.459Z,3.81
2023-01-29T21:03:27.206Z,3.75
2023-01-29T21:05:54.586Z,3.75
2023-01-29T21:08:21.214Z,3.73
2023-01-29T21:10:50.723Z,3.65
2023-01-29T21:13:17.258Z,3.65
2023-01-29T21:15:43.807Z,3.51
2023-01-29T21:18:10.271Z,3.51
2023-01-29T21:20:36.808Z,3.45
2023-01-29T21:23:05.901Z,3.45
2023-01-29T21:25:33.511Z,3.47
2023-01-29T21:28:00.129Z,3.48
2023-01-29T21:30:26.667Z,3.50
2023-01-29T21:35:43.547Z,3.51
2023-01-29T21:38:11.012Z,3.58
2023-01-29T21:40:47.761Z,3.59
2023-01-29T21:43:14.255Z,3.59
2023-01-29T21:45:40.767Z,3.62
2023-01-29T21:48:10.155Z,3.59
2023-01-29T21:50:37.473Z,3.56
2023-01-29T21:53:04.091Z,3.54
2023-01-29T21:55:33.616Z,3.48
2023-01-29T21:58:00.131Z,3.48
2023-01-29T22:00:26.664Z,3.51
2023-01-29T22:03:13.659Z,3.39
2023-01-29T22:05:40.141Z,3.38
2023-01-29T22:08:06.659Z,3.40
2023-01-29T22:10:33.341Z,3.37
2023-01-29T22:13:00.102Z,3.44
2023-01-29T22:15:26.559Z,3.50
2023-01-29T22:17:53.079Z,3.54
2023-01-29T22:20:20.341Z,3.58
2023-01-29T22:22:47.017Z,3.54
2023-01-29T22:25:13.511Z,3.56
2023-01-29T22:27:41.111Z,3.59
2023-01-29T22:30:07.597Z,3.52
2023-01-29T22:32:34.187Z,3.55
2023-01-29T22:35:00.763Z,3.54
2023-01-29T22:37:27.225Z,3.51
2023-01-29T22:39:53.759Z,3.49
2023-01-29T22:42:20.202Z,3.46
2023-01-29T22:44:47.654Z,3.43
2023-01-29T22:47:15.144Z,3.43
2023-01-29T22:49:41.661Z,3.33
2023-01-29T22:52:08.123Z,3.34
2023-01-29T22:54:34.618Z,3.37
2023-01-29T22:57:01.131Z,3.41
2023-01-29T22:59:28.754Z,3.42
2023-01-29T23:01:56.597Z,3.41
2023-01-29T23:04:23.194Z,3.44
2023-01-29T23:06:49.747Z,3.39
2023-01-29T23:09:16.179Z,3.42
2023-01-29T23:11:42.700Z,3.43
2023-01-29T23:14:09.305Z,3.38
2023-01-29T23:16:35.783Z,3.31
2023-01-29T23:19:02.301Z,3.36
2023-01-29T23:21:28.770Z,3.33
2023-01-29T23:23:55.231Z,3.35
2023-01-29T23:26:21.777Z,3.40
2023-01-29T23:28:48.323Z,3.41
2023-01-29T23:31:14.808Z,3.39
2023-01-29T23:33:41.363Z,3.37
2023-01-29T23:36:08.930Z,3.35
2023-01-29T23:38:35.392Z,3.35
2023-01-29T23:41:01.881Z,3.34
2023-01-29T23:43:28.421Z,3.38
2023-01-29T23:45:55.920Z,3.38
2023-01-29T23:48:22.413Z,3.37
2023-01-29T23:50:48.965Z,3.34
2023-01-29T23:53:15.453Z,3.27
2023-01-29T23:55:41.933Z,3.26
2023-01-29T23:58:08.394Z,3.26
